sensor_id;sensor_type;location;lat;lon;timestamp;P1;durP1;ratioP1;P2;durP2;ratioP2
70420;SDS011;57848;51.938;15.520;2023-07-31T00:01:41;5.70;;;2.00;;
70420;SDS011;57848;51.938;15.520;2023-07-31T00:04:06;8.20;;;2.60;;
70420;SDS011;57848;51.938;15.520;2023-07-31T00:06:32;8.10;;;2.57;;
70420;SDS011;57848;51.938;15.520;2023-07-31T00:08:57;7.00;;;2.57;;
70420;SDS011;57848;51.938;15.520;2023-07-31T00:11:22;7.17;;;2.67;;
70420;SDS011;57848;51.938;15.520;2023-07-31T00:13:48;7.33;;;2.87;;
70420;SDS011;57848;51.938;15.520;2023-07-31T00:16:13;8.60;;;2.80;;
70420;SDS011;57848;51.938;15.520;2023-07-31T00:18:38;8.93;;;2.57;;
70420;SDS011;57848;51.938;15.520;2023-07-31T00:21:04;7.83;;;2.63;;
70420;SDS011;57848;51.938;15.520;2023-07-31T00:23:29;7.83;;;3.23;;
70420;SDS011;57848;51.938;15.520;2023-07-31T00:25:54;7.17;;;2.87;;
70420;SDS011;57848;51.938;15.520;2023-07-31T00:28:20;7.20;;;2.93;;
70420;SDS011;57848;51.938;15.520;2023-07-31T00:30:45;10.43;;;2.90;;
70420;SDS011;57848;51.938;15.520;2023-07-31T00:33:10;7.13;;;2.20;;
70420;SDS011;57848;51.938;15.520;2023-07-31T00:35:36;8.90;;;3.03;;
70420;SDS011;57848;51.938;15.520;2023-07-31T00:38:01;7.33;;;2.67;;
70420;SDS011;57848;51.938;15.520;2023-07-31T00:40:27;10.00;;;2.90;;
70420;SDS011;57848;51.938;15.520;2023-07-31T00:42:52;7.37;;;2.50;;
70420;SDS011;57848;51.938;15.520;2023-07-31T00:45:17;10.05;;;3.17;;
70420;SDS011;57848;51.938;15.520;2023-07-31T00:47:43;7.43;;;2.90;;
70420;SDS011;57848;51.938;15.520;2023-07-31T00:50:08;7.43;;;2.67;;
70420;SDS011;57848;51.938;15.520;2023-07-31T00:52:35;9.57;;;3.10;;
70420;SDS011;57848;51.938;15.520;2023-07-31T00:55:00;7.93;;;2.40;;
70420;SDS011;57848;51.938;15.520;2023-07-31T00:57:26;6.90;;;2.45;;
70420;SDS011;57848;51.938;15.520;2023-07-31T00:59:51;8.30;;;3.03;;
70420;SDS011;57848;51.938;15.520;2023-07-31T01:02:17;9.20;;;3.07;;
70420;SDS011;57848;51.938;15.520;2023-07-31T01:04:43;8.45;;;3.15;;
70420;SDS011;57848;51.938;15.520;2023-07-31T01:12:29;7.80;;;2.47;;
70420;SDS011;57848;51.938;15.520;2023-07-31T01:15:06;7.80;;;2.60;;
70420;SDS011;57848;51.938;15.520;2023-07-31T01:17:36;7.60;;;2.88;;
70420;SDS011;57848;51.938;15.520;2023-07-31T01:20:26;8.65;;;2.53;;
70420;SDS011;57848;51.938;15.520;2023-07-31T01:31:29;8.88;;;2.47;;
70420;SDS011;57848;51.938;15.520;2023-07-31T01:33:56;9.77;;;3.20;;
70420;SDS011;57848;51.938;15.520;2023-07-31T01:36:24;10.03;;;3.33;;
70420;SDS011;57848;51.938;15.520;2023-07-31T01:38:50;8.13;;;3.03;;
70420;SDS011;57848;51.938;15.520;2023-07-31T01:41:18;8.80;;;3.30;;
70420;SDS011;57848;51.938;15.520;2023-07-31T01:43:47;7.22;;;2.78;;
70420;SDS011;57848;51.938;15.520;2023-07-31T01:46:13;8.40;;;3.22;;
70420;SDS011;57848;51.938;15.520;2023-07-31T01:48:39;9.40;;;3.10;;
70420;SDS011;57848;51.938;15.520;2023-07-31T01:51:04;7.53;;;3.47;;
70420;SDS011;57848;51.938;15.520;2023-07-31T01:53:30;9.83;;;3.57;;
70420;SDS011;57848;51.938;15.520;2023-07-31T01:55:56;7.78;;;3.35;;
70420;SDS011;57848;51.938;15.520;2023-07-31T01:58:21;8.30;;;3.60;;
70420;SDS011;57848;51.938;15.520;2023-07-31T02:00:47;10.13;;;3.77;;
70420;SDS011;57848;51.938;15.520;2023-07-31T02:03:12;8.67;;;3.57;;
70420;SDS011;57848;51.938;15.520;2023-07-31T02:05:44;8.13;;;3.10;;
70420;SDS011;57848;51.938;15.520;2023-07-31T02:08:11;9.30;;;3.85;;
70420;SDS011;57848;51.938;15.520;2023-07-31T02:10:36;9.50;;;3.67;;
70420;SDS011;57848;51.938;15.520;2023-07-31T02:13:02;8.27;;;3.87;;
70420;SDS011;57848;51.938;15.520;2023-07-31T02:15:32;12.77;;;3.58;;
70420;SDS011;57848;51.938;15.520;2023-07-31T02:17:57;8.98;;;3.67;;
70420;SDS011;57848;51.938;15.520;2023-07-31T02:20:24;10.23;;;3.90;;
70420;SDS011;57848;51.938;15.520;2023-07-31T02:22:50;8.23;;;3.80;;
70420;SDS011;57848;51.938;15.520;2023-07-31T02:25:15;8.47;;;3.37;;
70420;SDS011;57848;51.938;15.520;2023-07-31T02:27:40;14.10;;;4.00;;
70420;SDS011;57848;51.938;15.520;2023-07-31T02:30:06;8.00;;;3.40;;
70420;SDS011;57848;51.938;15.520;2023-07-31T02:32:32;9.32;;;3.72;;
70420;SDS011;57848;51.938;15.520;2023-07-31T02:34:57;8.83;;;3.57;;
70420;SDS011;57848;51.938;15.520;2023-07-31T02:37:24;8.23;;;3.47;;
70420;SDS011;57848;51.938;15.520;2023-07-31T02:39:50;7.77;;;3.47;;
70420;SDS011;57848;51.938;15.520;2023-07-31T02:42:15;6.67;;;3.33;;
70420;SDS011;57848;51.938;15.520;2023-07-31T02:44:41;7.97;;;3.70;;
70420;SDS011;57848;51.938;15.520;2023-07-31T02:47:06;8.93;;;2.95;;
70420;SDS011;57848;51.938;15.520;2023-07-31T02:49:33;9.20;;;3.30;;
70420;SDS011;57848;51.938;15.520;2023-07-31T02:51:58;9.60;;;3.33;;
70420;SDS011;57848;51.938;15.520;2023-07-31T02:54:23;8.70;;;3.40;;
70420;SDS011;57848;51.938;15.520;2023-07-31T02:56:49;7.97;;;3.73;;
70420;SDS011;57848;51.938;15.520;2023-07-31T02:59:14;8.00;;;3.40;;
70420;SDS011;57848;51.938;15.520;2023-07-31T03:01:39;9.10;;;3.83;;
70420;SDS011;57848;51.938;15.520;2023-07-31T03:04:05;11.25;;;3.80;;
70420;SDS011;57848;51.938;15.520;2023-07-31T03:06:30;9.20;;;3.10;;
70420;SDS011;57848;51.938;15.520;2023-07-31T03:08:56;17.93;;;4.20;;
70420;SDS011;57848;51.938;15.520;2023-07-31T03:11:21;9.80;;;3.40;;
70420;SDS011;57848;51.938;15.520;2023-07-31T03:13:46;8.80;;;3.90;;
70420;SDS011;57848;51.938;15.520;2023-07-31T03:16:12;11.25;;;3.95;;
70420;SDS011;57848;51.938;15.520;2023-07-31T03:18:37;11.17;;;3.67;;
70420;SDS011;57848;51.938;15.520;2023-07-31T03:21:02;10.77;;;3.77;;
70420;SDS011;57848;51.938;15.520;2023-07-31T03:23:29;10.95;;;3.38;;
70420;SDS011;57848;51.938;15.520;2023-07-31T03:25:58;8.30;;;3.60;;
70420;SDS011;57848;51.938;15.520;2023-07-31T03:28:27;9.25;;;4.03;;
70420;SDS011;57848;51.938;15.520;2023-07-31T03:30:52;9.57;;;3.50;;
70420;SDS011;57848;51.938;15.520;2023-07-31T03:33:18;10.27;;;4.73;;
70420;SDS011;57848;51.938;15.520;2023-07-31T03:35:44;8.40;;;3.30;;
70420;SDS011;57848;51.938;15.520;2023-07-31T03:38:09;8.40;;;3.47;;
70420;SDS011;57848;51.938;15.520;2023-07-31T03:40:35;8.50;;;3.73;;
70420;SDS011;57848;51.938;15.520;2023-07-31T03:43:01;8.77;;;3.60;;
70420;SDS011;57848;51.938;15.520;2023-07-31T03:45:26;8.17;;;3.93;;
70420;SDS011;57848;51.938;15.520;2023-07-31T03:47:51;13.60;;;3.90;;
70420;SDS011;57848;51.938;15.520;2023-07-31T03:50:17;9.87;;;4.00;;
70420;SDS011;57848;51.938;15.520;2023-07-31T03:52:42;10.37;;;3.67;;
70420;SDS011;57848;51.938;15.520;2023-07-31T03:55:07;8.40;;;3.60;;
70420;SDS011;57848;51.938;15.520;2023-07-31T03:57:33;8.02;;;3.30;;
70420;SDS011;57848;51.938;15.520;2023-07-31T03:59:58;9.93;;;3.40;;
70420;SDS011;57848;51.938;15.520;2023-07-31T04:02:24;6.93;;;3.00;;
70420;SDS011;57848;51.938;15.520;2023-07-31T04:04:49;10.60;;;3.10;;
70420;SDS011;57848;51.938;15.520;2023-07-31T04:07:15;8.68;;;3.20;;
70420;SDS011;57848;51.938;15.520;2023-07-31T04:09:40;9.83;;;3.93;;
70420;SDS011;57848;51.938;15.520;2023-07-31T04:12:05;8.60;;;3.37;;
70420;SDS011;57848;51.938;15.520;2023-07-31T04:14:31;9.13;;;3.67;;
70420;SDS011;57848;51.938;15.520;2023-07-31T04:16:56;10.35;;;3.40;;
70420;SDS011;57848;51.938;15.520;2023-07-31T04:19:22;10.23;;;3.10;;
70420;SDS011;57848;51.938;15.520;2023-07-31T04:21:47;9.77;;;3.30;;
70420;SDS011;57848;51.938;15.520;2023-07-31T04:24:12;10.13;;;3.10;;
70420;SDS011;57848;51.938;15.520;2023-07-31T04:26:37;8.73;;;3.30;;
70420;SDS011;57848;51.938;15.520;2023-07-31T04:29:03;9.07;;;3.50;;
70420;SDS011;57848;51.938;15.520;2023-07-31T04:31:28;8.67;;;3.17;;
70420;SDS011;57848;51.938;15.520;2023-07-31T04:33:53;8.23;;;3.10;;
70420;SDS011;57848;51.938;15.520;2023-07-31T04:36:19;9.10;;;3.00;;
70420;SDS011;57848;51.938;15.520;2023-07-31T04:38:44;8.70;;;2.97;;
70420;SDS011;57848;51.938;15.520;2023-07-31T04:41:09;9.77;;;3.13;;
70420;SDS011;57848;51.938;15.520;2023-07-31T04:43:35;11.40;;;3.27;;
70420;SDS011;57848;51.938;15.520;2023-07-31T04:46:00;7.47;;;3.33;;
70420;SDS011;57848;51.938;15.520;2023-07-31T04:48:25;9.57;;;3.90;;
70420;SDS011;57848;51.938;15.520;2023-07-31T04:50:51;8.87;;;3.33;;
70420;SDS011;57848;51.938;15.520;2023-07-31T04:53:16;9.13;;;3.10;;
70420;SDS011;57848;51.938;15.520;2023-07-31T04:55:41;10.02;;;3.20;;
70420;SDS011;57848;51.938;15.520;2023-07-31T04:58:07;10.23;;;2.83;;
70420;SDS011;57848;51.938;15.520;2023-07-31T05:00:32;8.10;;;2.70;;
70420;SDS011;57848;51.938;15.520;2023-07-31T05:02:57;9.27;;;3.00;;
70420;SDS011;57848;51.938;15.520;2023-07-31T05:05:23;10.53;;;2.63;;
70420;SDS011;57848;51.938;15.520;2023-07-31T05:07:48;8.67;;;2.90;;
70420;SDS011;57848;51.938;15.520;2023-07-31T05:10:13;7.87;;;2.60;;
70420;SDS011;57848;51.938;15.520;2023-07-31T05:12:39;8.35;;;2.70;;
70420;SDS011;57848;51.938;15.520;2023-07-31T05:15:05;8.03;;;2.67;;
70420;SDS011;57848;51.938;15.520;2023-07-31T05:17:31;7.68;;;3.08;;
70420;SDS011;57848;51.938;15.520;2023-07-31T05:19:57;8.23;;;2.80;;
70420;SDS011;57848;51.938;15.520;2023-07-31T05:22:22;8.55;;;2.38;;
70420;SDS011;57848;51.938;15.520;2023-07-31T05:24:48;7.67;;;2.77;;
70420;SDS011;57848;51.938;15.520;2023-07-31T05:27:13;7.50;;;2.73;;
70420;SDS011;57848;51.938;15.520;2023-07-31T05:29:40;9.65;;;2.50;;
70420;SDS011;57848;51.938;15.520;2023-07-31T05:32:05;9.63;;;2.72;;
70420;SDS011;57848;51.938;15.520;2023-07-31T05:34:31;7.70;;;2.60;;
70420;SDS011;57848;51.938;15.520;2023-07-31T05:36:57;11.63;;;2.57;;
70420;SDS011;57848;51.938;15.520;2023-07-31T05:39:22;8.85;;;2.10;;
70420;SDS011;57848;51.938;15.520;2023-07-31T05:41:47;10.17;;;2.60;;
70420;SDS011;57848;51.938;15.520;2023-07-31T05:44:13;10.63;;;2.53;;
70420;SDS011;57848;51.938;15.520;2023-07-31T05:46:38;10.33;;;2.70;;
70420;SDS011;57848;51.938;15.520;2023-07-31T05:49:03;8.97;;;2.67;;
70420;SDS011;57848;51.938;15.520;2023-07-31T05:51:28;6.73;;;2.47;;
70420;SDS011;57848;51.938;15.520;2023-07-31T05:53:54;8.07;;;2.23;;
70420;SDS011;57848;51.938;15.520;2023-07-31T05:56:19;10.13;;;2.10;;
70420;SDS011;57848;51.938;15.520;2023-07-31T05:58:44;7.38;;;2.13;;
70420;SDS011;57848;51.938;15.520;2023-07-31T06:01:10;7.73;;;2.07;;
70420;SDS011;57848;51.938;15.520;2023-07-31T06:03:35;7.63;;;2.07;;
70420;SDS011;57848;51.938;15.520;2023-07-31T06:06:00;10.03;;;2.27;;
70420;SDS011;57848;51.938;15.520;2023-07-31T06:08:26;10.17;;;2.30;;
70420;SDS011;57848;51.938;15.520;2023-07-31T06:10:51;9.30;;;2.07;;
70420;SDS011;57848;51.938;15.520;2023-07-31T06:13:16;6.63;;;1.87;;
70420;SDS011;57848;51.938;15.520;2023-07-31T06:15:42;6.63;;;2.10;;
70420;SDS011;57848;51.938;15.520;2023-07-31T06:18:07;7.07;;;1.88;;
70420;SDS011;57848;51.938;15.520;2023-07-31T06:20:33;9.87;;;2.07;;
70420;SDS011;57848;51.938;15.520;2023-07-31T06:22:59;6.93;;;1.80;;
70420;SDS011;57848;51.938;15.520;2023-07-31T06:25:24;7.10;;;2.40;;
70420;SDS011;57848;51.938;15.520;2023-07-31T06:27:50;6.57;;;2.00;;
70420;SDS011;57848;51.938;15.520;2023-07-31T06:30:15;7.30;;;1.90;;
70420;SDS011;57848;51.938;15.520;2023-07-31T06:32:41;6.47;;;1.90;;
70420;SDS011;57848;51.938;15.520;2023-07-31T06:35:06;6.27;;;2.30;;
70420;SDS011;57848;51.938;15.520;2023-07-31T06:37:32;5.93;;;1.80;;
70420;SDS011;57848;51.938;15.520;2023-07-31T06:39:57;7.10;;;2.00;;
70420;SDS011;57848;51.938;15.520;2023-07-31T06:42:22;6.77;;;2.10;;
70420;SDS011;57848;51.938;15.520;2023-07-31T06:44:48;7.23;;;1.87;;
70420;SDS011;57848;51.938;15.520;2023-07-31T06:47:14;6.77;;;1.87;;
70420;SDS011;57848;51.938;15.520;2023-07-31T06:49:39;8.93;;;1.98;;
70420;SDS011;57848;51.938;15.520;2023-07-31T06:52:05;6.37;;;1.70;;
70420;SDS011;57848;51.938;15.520;2023-07-31T06:54:30;8.70;;;2.07;;
70420;SDS011;57848;51.938;15.520;2023-07-31T06:56:56;7.70;;;2.00;;
70420;SDS011;57848;51.938;15.520;2023-07-31T06:59:21;7.82;;;2.20;;
70420;SDS011;57848;51.938;15.520;2023-07-31T07:01:46;7.10;;;1.77;;
70420;SDS011;57848;51.938;15.520;2023-07-31T07:04:13;7.60;;;2.07;;
70420;SDS011;57848;51.938;15.520;2023-07-31T07:06:38;9.23;;;1.85;;
70420;SDS011;57848;51.938;15.520;2023-07-31T07:09:04;6.27;;;1.60;;
70420;SDS011;57848;51.938;15.520;2023-07-31T07:11:29;8.17;;;1.73;;
70420;SDS011;57848;51.938;15.520;2023-07-31T07:13:54;8.37;;;1.90;;
70420;SDS011;57848;51.938;15.520;2023-07-31T07:16:20;7.97;;;1.60;;
70420;SDS011;57848;51.938;15.520;2023-07-31T07:18:45;6.33;;;2.07;;
70420;SDS011;57848;51.938;15.520;2023-07-31T07:21:11;5.85;;;1.77;;
70420;SDS011;57848;51.938;15.520;2023-07-31T07:23:40;7.07;;;2.27;;
70420;SDS011;57848;51.938;15.520;2023-07-31T07:26:06;8.32;;;1.92;;
70420;SDS011;57848;51.938;15.520;2023-07-31T07:28:31;8.90;;;2.10;;
70420;SDS011;57848;51.938;15.520;2023-07-31T07:30:57;7.57;;;2.00;;
70420;SDS011;57848;51.938;15.520;2023-07-31T07:33:23;6.87;;;1.77;;
70420;SDS011;57848;51.938;15.520;2023-07-31T07:35:48;8.83;;;2.13;;
70420;SDS011;57848;51.938;15.520;2023-07-31T07:38:14;8.50;;;2.07;;
70420;SDS011;57848;51.938;15.520;2023-07-31T07:40:40;7.75;;;1.92;;
70420;SDS011;57848;51.938;15.520;2023-07-31T07:43:05;7.43;;;1.80;;
70420;SDS011;57848;51.938;15.520;2023-07-31T07:45:31;8.90;;;2.00;;
70420;SDS011;57848;51.938;15.520;2023-07-31T07:47:56;6.87;;;1.93;;
70420;SDS011;57848;51.938;15.520;2023-07-31T07:50:22;8.18;;;2.10;;
70420;SDS011;57848;51.938;15.520;2023-07-31T07:52:48;10.43;;;2.30;;
70420;SDS011;57848;51.938;15.520;2023-07-31T07:55:13;7.90;;;1.70;;
70420;SDS011;57848;51.938;15.520;2023-07-31T07:57:39;8.27;;;1.75;;
70420;SDS011;57848;51.938;15.520;2023-07-31T08:00:04;7.00;;;1.90;;
70420;SDS011;57848;51.938;15.520;2023-07-31T08:02:39;9.30;;;1.97;;
70420;SDS011;57848;51.938;15.520;2023-07-31T08:05:04;6.65;;;1.95;;
70420;SDS011;57848;51.938;15.520;2023-07-31T08:07:30;6.27;;;1.63;;
70420;SDS011;57848;51.938;15.520;2023-07-31T08:09:55;5.63;;;1.80;;
70420;SDS011;57848;51.938;15.520;2023-07-31T08:12:20;6.53;;;1.90;;
70420;SDS011;57848;51.938;15.520;2023-07-31T08:14:45;7.80;;;1.97;;
70420;SDS011;57848;51.938;15.520;2023-07-31T08:17:11;8.33;;;2.20;;
70420;SDS011;57848;51.938;15.520;2023-07-31T08:19:36;6.72;;;2.20;;
70420;SDS011;57848;51.938;15.520;2023-07-31T08:22:01;5.97;;;2.00;;
70420;SDS011;57848;51.938;15.520;2023-07-31T08:24:27;7.10;;;2.03;;
70420;SDS011;57848;51.938;15.520;2023-07-31T08:26:52;10.17;;;2.50;;
70420;SDS011;57848;51.938;15.520;2023-07-31T08:29:18;10.83;;;2.87;;
70420;SDS011;57848;51.938;15.520;2023-07-31T08:31:43;7.57;;;2.67;;
70420;SDS011;57848;51.938;15.520;2023-07-31T08:34:08;7.83;;;2.13;;
70420;SDS011;57848;51.938;15.520;2023-07-31T08:36:33;7.00;;;2.23;;
70420;SDS011;57848;51.938;15.520;2023-07-31T08:38:59;8.53;;;2.60;;
70420;SDS011;57848;51.938;15.520;2023-07-31T08:41:24;7.17;;;1.97;;
70420;SDS011;57848;51.938;15.520;2023-07-31T08:43:50;6.93;;;1.95;;
70420;SDS011;57848;51.938;15.520;2023-07-31T08:46:17;8.23;;;2.15;;
70420;SDS011;57848;51.938;15.520;2023-07-31T08:48:43;7.40;;;2.40;;
70420;SDS011;57848;51.938;15.520;2023-07-31T08:51:10;5.77;;;2.30;;
70420;SDS011;57848;51.938;15.520;2023-07-31T08:53:36;7.55;;;2.10;;
70420;SDS011;57848;51.938;15.520;2023-07-31T08:56:01;6.63;;;2.00;;
70420;SDS011;57848;51.938;15.520;2023-07-31T08:58:28;7.35;;;2.00;;
70420;SDS011;57848;51.938;15.520;2023-07-31T09:00:56;8.15;;;2.20;;
70420;SDS011;57848;51.938;15.520;2023-07-31T09:03:23;6.50;;;1.93;;
70420;SDS011;57848;51.938;15.520;2023-07-31T09:05:50;7.53;;;2.38;;
70420;SDS011;57848;51.938;15.520;2023-07-31T09:08:19;8.07;;;2.53;;
70420;SDS011;57848;51.938;15.520;2023-07-31T09:10:46;6.40;;;2.03;;
70420;SDS011;57848;51.938;15.520;2023-07-31T09:13:12;5.70;;;2.03;;
70420;SDS011;57848;51.938;15.520;2023-07-31T09:15:39;7.30;;;2.22;;
70420;SDS011;57848;51.938;15.520;2023-07-31T09:18:05;5.72;;;1.70;;
70420;SDS011;57848;51.938;15.520;2023-07-31T09:20:32;6.20;;;2.05;;
70420;SDS011;57848;51.938;15.520;2023-07-31T09:23:10;5.40;;;1.93;;
70420;SDS011;57848;51.938;15.520;2023-07-31T09:25:38;6.40;;;2.33;;
70420;SDS011;57848;51.938;15.520;2023-07-31T09:28:07;8.23;;;2.22;;
70420;SDS011;57848;51.938;15.520;2023-07-31T09:30:47;8.02;;;2.35;;
70420;SDS011;57848;51.938;15.520;2023-07-31T09:33:14;8.95;;;2.50;;
70420;SDS011;57848;51.938;15.520;2023-07-31T09:35:40;7.03;;;2.40;;
70420;SDS011;57848;51.938;15.520;2023-07-31T09:38:08;8.18;;;2.75;;
70420;SDS011;57848;51.938;15.520;2023-07-31T09:40:35;7.32;;;2.67;;
70420;SDS011;57848;51.938;15.520;2023-07-31T09:43:09;7.20;;;2.33;;
70420;SDS011;57848;51.938;15.520;2023-07-31T09:45:36;6.05;;;2.45;;
70420;SDS011;57848;51.938;15.520;2023-07-31T09:48:03;6.53;;;2.80;;
70420;SDS011;57848;51.938;15.520;2023-07-31T09:50:29;7.03;;;2.22;;
70420;SDS011;57848;51.938;15.520;2023-07-31T09:52:55;5.85;;;2.47;;
70420;SDS011;57848;51.938;15.520;2023-07-31T09:55:20;7.07;;;2.57;;
70420;SDS011;57848;51.938;15.520;2023-07-31T09:57:49;9.23;;;2.87;;
70420;SDS011;57848;51.938;15.520;2023-07-31T10:00:15;7.22;;;2.90;;
70420;SDS011;57848;51.938;15.520;2023-07-31T10:02:44;7.97;;;2.63;;
70420;SDS011;57848;51.938;15.520;2023-07-31T10:05:12;7.65;;;2.58;;
70420;SDS011;57848;51.938;15.520;2023-07-31T10:07:40;7.17;;;2.50;;
70420;SDS011;57848;51.938;15.520;2023-07-31T10:10:08;9.75;;;2.55;;
70420;SDS011;57848;51.938;15.520;2023-07-31T10:12:34;8.90;;;2.70;;
70420;SDS011;57848;51.938;15.520;2023-07-31T10:15:01;9.13;;;2.63;;
70420;SDS011;57848;51.938;15.520;2023-07-31T10:17:26;8.27;;;2.60;;
70420;SDS011;57848;51.938;15.520;2023-07-31T10:19:52;8.00;;;2.33;;
70420;SDS011;57848;51.938;15.520;2023-07-31T10:22:19;9.05;;;2.50;;
70420;SDS011;57848;51.938;15.520;2023-07-31T10:24:45;8.38;;;2.80;;
70420;SDS011;57848;51.938;15.520;2023-07-31T10:27:11;8.70;;;2.40;;
70420;SDS011;57848;51.938;15.520;2023-07-31T10:29:37;6.43;;;2.30;;
70420;SDS011;57848;51.938;15.520;2023-07-31T10:32:05;6.15;;;2.25;;
70420;SDS011;57848;51.938;15.520;2023-07-31T10:34:35;8.88;;;2.60;;
70420;SDS011;57848;51.938;15.520;2023-07-31T10:40:00;7.73;;;2.47;;
70420;SDS011;57848;51.938;15.520;2023-07-31T10:42:32;8.57;;;2.60;;
70420;SDS011;57848;51.938;15.520;2023-07-31T10:45:08;9.40;;;2.88;;
70420;SDS011;57848;51.938;15.520;2023-07-31T10:47:38;7.93;;;2.10;;
70420;SDS011;57848;51.938;15.520;2023-07-31T10:52:46;7.47;;;2.40;;
70420;SDS011;57848;51.938;15.520;2023-07-31T10:55:33;7.07;;;2.20;;
70420;SDS011;57848;51.938;15.520;2023-07-31T10:58:12;8.40;;;2.47;;
70420;SDS011;57848;51.938;15.520;2023-07-31T11:00:38;8.38;;;2.17;;
70420;SDS011;57848;51.938;15.520;2023-07-31T11:03:09;7.03;;;2.10;;
70420;SDS011;57848;51.938;15.520;2023-07-31T11:05:42;7.60;;;2.10;;
70420;SDS011;57848;51.938;15.520;2023-07-31T11:08:13;7.97;;;2.45;;
70420;SDS011;57848;51.938;15.520;2023-07-31T11:10:50;7.03;;;2.42;;
70420;SDS011;57848;51.938;15.520;2023-07-31T11:15:58;7.60;;;2.63;;
70420;SDS011;57848;51.938;15.520;2023-07-31T11:18:24;7.33;;;2.33;;
70420;SDS011;57848;51.938;15.520;2023-07-31T11:20:52;8.63;;;2.47;;
70420;SDS011;57848;51.938;15.520;2023-07-31T11:23:18;8.15;;;2.88;;
70420;SDS011;57848;51.938;15.520;2023-07-31T11:25:44;6.82;;;2.22;;
70420;SDS011;57848;51.938;15.520;2023-07-31T11:28:14;7.73;;;2.10;;
70420;SDS011;57848;51.938;15.520;2023-07-31T11:30:41;9.57;;;2.40;;
70420;SDS011;57848;51.938;15.520;2023-07-31T11:33:08;6.60;;;1.98;;
70420;SDS011;57848;51.938;15.520;2023-07-31T11:35:35;11.70;;;2.27;;
70420;SDS011;57848;51.938;15.520;2023-07-31T11:38:06;5.65;;;1.83;;
70420;SDS011;57848;51.938;15.520;2023-07-31T11:40:40;6.47;;;2.17;;
70420;SDS011;57848;51.938;15.520;2023-07-31T11:43:06;6.55;;;2.28;;
70420;SDS011;57848;51.938;15.520;2023-07-31T11:45:32;5.80;;;2.00;;
70420;SDS011;57848;51.938;15.520;2023-07-31T11:47:58;7.93;;;2.30;;
70420;SDS011;57848;51.938;15.520;2023-07-31T11:50:23;6.20;;;1.87;;
70420;SDS011;57848;51.938;15.520;2023-07-31T11:52:53;6.32;;;1.98;;
70420;SDS011;57848;51.938;15.520;2023-07-31T11:55:22;8.60;;;2.03;;
70420;SDS011;57848;51.938;15.520;2023-07-31T11:57:48;7.83;;;2.17;;
70420;SDS011;57848;51.938;15.520;2023-07-31T12:00:15;8.13;;;1.88;;
70420;SDS011;57848;51.938;15.520;2023-07-31T12:02:41;7.63;;;1.80;;
70420;SDS011;57848;51.938;15.520;2023-07-31T12:05:11;8.13;;;2.30;;
70420;SDS011;57848;51.938;15.520;2023-07-31T12:07:46;9.65;;;2.17;;
70420;SDS011;57848;51.938;15.520;2023-07-31T12:10:29;7.63;;;1.97;;
70420;SDS011;57848;51.938;15.520;2023-07-31T12:15:33;10.68;;;2.22;;
70420;SDS011;57848;51.938;15.520;2023-07-31T12:18:04;6.43;;;2.15;;
70420;SDS011;57848;51.938;15.520;2023-07-31T12:20:46;10.02;;;2.20;;
70420;SDS011;57848;51.938;15.520;2023-07-31T12:23:13;6.67;;;1.90;;
70420;SDS011;57848;51.938;15.520;2023-07-31T12:25:43;7.82;;;2.08;;
70420;SDS011;57848;51.938;15.520;2023-07-31T12:28:08;7.53;;;2.43;;
70420;SDS011;57848;51.938;15.520;2023-07-31T12:30:37;7.75;;;1.90;;
70420;SDS011;57848;51.938;15.520;2023-07-31T12:33:13;8.60;;;2.58;;
70420;SDS011;57848;51.938;15.520;2023-07-31T12:35:46;6.20;;;2.13;;
70420;SDS011;57848;51.938;15.520;2023-07-31T12:38:12;7.78;;;2.50;;
70420;SDS011;57848;51.938;15.520;2023-07-31T12:40:39;8.97;;;1.90;;
70420;SDS011;57848;51.938;15.520;2023-07-31T12:43:06;6.18;;;1.98;;
70420;SDS011;57848;51.938;15.520;2023-07-31T12:45:32;6.07;;;1.70;;
70420;SDS011;57848;51.938;15.520;2023-07-31T12:47:58;8.05;;;2.00;;
70420;SDS011;57848;51.938;15.520;2023-07-31T12:50:24;5.78;;;1.88;;
70420;SDS011;57848;51.938;15.520;2023-07-31T12:52:50;6.20;;;1.80;;
70420;SDS011;57848;51.938;15.520;2023-07-31T12:55:16;7.38;;;1.98;;
70420;SDS011;57848;51.938;15.520;2023-07-31T12:57:43;6.38;;;1.83;;
70420;SDS011;57848;51.938;15.520;2023-07-31T13:00:08;7.50;;;2.10;;
70420;SDS011;57848;51.938;15.520;2023-07-31T13:02:34;5.85;;;1.80;;
70420;SDS011;57848;51.938;15.520;2023-07-31T13:05:00;8.40;;;2.07;;
70420;SDS011;57848;51.938;15.520;2023-07-31T13:07:26;7.00;;;2.30;;
70420;SDS011;57848;51.938;15.520;2023-07-31T13:09:51;6.88;;;2.25;;
70420;SDS011;57848;51.938;15.520;2023-07-31T13:12:16;4.67;;;1.53;;
70420;SDS011;57848;51.938;15.520;2023-07-31T13:14:42;6.80;;;1.70;;
70420;SDS011;57848;51.938;15.520;2023-07-31T13:17:07;7.53;;;2.40;;
70420;SDS011;57848;51.938;15.520;2023-07-31T13:19:33;5.43;;;1.70;;
70420;SDS011;57848;51.938;15.520;2023-07-31T13:21:58;7.55;;;2.00;;
70420;SDS011;57848;51.938;15.520;2023-07-31T13:24:23;5.60;;;1.87;;
70420;SDS011;57848;51.938;15.520;2023-07-31T13:26:48;7.90;;;1.90;;
70420;SDS011;57848;51.938;15.520;2023-07-31T13:29:14;5.50;;;1.67;;
70420;SDS011;57848;51.938;15.520;2023-07-31T13:31:39;6.80;;;1.70;;
70420;SDS011;57848;51.938;15.520;2023-07-31T13:34:04;8.07;;;2.30;;
70420;SDS011;57848;51.938;15.520;2023-07-31T13:36:30;7.13;;;2.03;;
70420;SDS011;57848;51.938;15.520;2023-07-31T13:38:55;7.00;;;1.63;;
70420;SDS011;57848;51.938;15.520;2023-07-31T13:41:20;6.53;;;1.67;;
70420;SDS011;57848;51.938;15.520;2023-07-31T13:43:46;5.80;;;1.83;;
70420;SDS011;57848;51.938;15.520;2023-07-31T13:46:11;7.07;;;1.90;;
70420;SDS011;57848;51.938;15.520;2023-07-31T13:48:36;6.87;;;1.90;;
70420;SDS011;57848;51.938;15.520;2023-07-31T13:51:02;6.50;;;1.80;;
70420;SDS011;57848;51.938;15.520;2023-07-31T13:53:27;6.20;;;1.60;;
70420;SDS011;57848;51.938;15.520;2023-07-31T13:55:53;6.97;;;2.07;;
70420;SDS011;57848;51.938;15.520;2023-07-31T13:58:18;6.70;;;2.10;;
70420;SDS011;57848;51.938;15.520;2023-07-31T14:00:46;6.85;;;2.17;;
70420;SDS011;57848;51.938;15.520;2023-07-31T14:03:11;9.20;;;1.90;;
70420;SDS011;57848;51.938;15.520;2023-07-31T14:05:36;5.47;;;1.70;;
70420;SDS011;57848;51.938;15.520;2023-07-31T14:08:02;6.75;;;2.10;;
70420;SDS011;57848;51.938;15.520;2023-07-31T14:10:28;7.67;;;2.10;;
70420;SDS011;57848;51.938;15.520;2023-07-31T14:12:53;6.63;;;2.27;;
70420;SDS011;57848;51.938;15.520;2023-07-31T14:15:18;7.38;;;2.10;;
70420;SDS011;57848;51.938;15.520;2023-07-31T14:17:44;6.33;;;2.10;;
70420;SDS011;57848;51.938;15.520;2023-07-31T14:20:10;7.97;;;2.17;;
70420;SDS011;57848;51.938;15.520;2023-07-31T14:22:36;6.70;;;2.03;;
70420;SDS011;57848;51.938;15.520;2023-07-31T14:25:02;6.80;;;2.00;;
70420;SDS011;57848;51.938;15.520;2023-07-31T14:27:28;5.65;;;2.03;;
70420;SDS011;57848;51.938;15.520;2023-07-31T14:29:53;6.60;;;2.10;;
70420;SDS011;57848;51.938;15.520;2023-07-31T14:32:19;6.37;;;2.10;;
70420;SDS011;57848;51.938;15.520;2023-07-31T14:34:44;6.87;;;2.30;;
70420;SDS011;57848;51.938;15.520;2023-07-31T14:37:09;7.57;;;2.20;;
70420;SDS011;57848;51.938;15.520;2023-07-31T14:39:35;6.47;;;2.28;;
70420;SDS011;57848;51.938;15.520;2023-07-31T14:42:00;7.53;;;2.30;;
70420;SDS011;57848;51.938;15.520;2023-07-31T14:44:25;8.50;;;2.43;;
70420;SDS011;57848;51.938;15.520;2023-07-31T14:46:51;7.43;;;1.90;;
70420;SDS011;57848;51.938;15.520;2023-07-31T14:49:16;6.80;;;2.20;;
70420;SDS011;57848;51.938;15.520;2023-07-31T14:51:41;6.70;;;2.00;;
70420;SDS011;57848;51.938;15.520;2023-07-31T14:54:07;7.78;;;2.00;;